x

Buoy I01 - Eastern Maine Shelf (44034) Weather Station

2:04 - Wed 20th Sep 2017 All times are EDT. -4 hours from GMT.

  • Wind
    11mph, 13mph gusts
  • Sea Temp 54°f
  • Ar Temp 56°f
  • Sea Pressure 1016.3mb
  • Buoy I01 - Eastern Maine Shelf
  • Buoy I01 - Eastern Maine Shelf

More Historic Weather Station data

Upgrade to MSW Pro to gain access to the past 30 days of data for over 8000 Wavebouys and Weather Stations around the globe.

Join

Comparision Forecast

View Surf forecast
   
Qua 09/20 2:04  -   -  11 13 mph 1016.3mb 54f 56f
1:04  -   -  11 13 mph 1016.8mb 54f 57f
12:04  -   -  11 13 mph 1017mb 54f 57f
Ter 09/19 11:04  -   -  11 13 mph 1017.6mb 54f 57f
10:04  -   -  13 16 mph 1018mb 54f 58f
9:04  -   -  13 16 mph 1018.3mb 54f 57f
8:04  -   -  11 16 mph 1018.6mb 54f 56f
7:04  -   -  11 13 mph 1018.6mb 54f 57f
6:04  -   -  13 16 mph 1018.6mb 54f 57f
5:04  -   -  13 16 mph 1019mb 54f 56f
4:04 6ft 11s 13 16 mph 1019.2mb 54f 56f
3:04 6ft 11s 11 13 mph 1019.6mb 54f 56f
1:04  -   -  11 13 mph 1020.5mb 54f 56f
12:04 1.3ft 3s 11 13 mph 1021.2mb 54f 56f
11:04 1.3ft 3s 11 13 mph 1021.5mb 54f 56f
10:04 1.3ft 3s 11 11 mph 1021.5mb 54f 56f
9:04  -   -  9 11 mph 1021.7mb 54f 56f
8:04 3.5ft 8s 9 11 mph 1021.6mb 54f 56f
7:04  -   -  11 13 mph 1021.7mb 54f 56f
6:04  -   -  11 11 mph 1021.6mb 54f 56f
5:04  -   -  9 11 mph 1022mb 54f 56f
4:04  -   -  11 13 mph 1022mb 54f 56f
3:04 6ft 16s 11 13 mph 1022mb 54f 55f
2:04 5ft 11s 9 11 mph 1022.4mb 55f 55f
1:04 4.5ft 11s 9 9 mph 1022.6mb 55f 56f
12:04 4ft 11s 9 11 mph 1022.6mb 55f 56f
Seg 09/18 11:04 4.5ft 16s 7 7 mph 1023.2mb 55f 56f
10:04 5ft 16s 7 9 mph 1023.2mb 55f 56f
9:04 5ft 16s 7 9 mph 1023mb 55f 56f
8:04 5ft 16s 9 9 mph 1023mb 55f 56f
7:04 6ft 16s 9 11 mph 1022.8mb 56f 56f
6:04  -   -  7 7 mph 1022.8mb 56f 56f
5:04 5ft 11s 7 7 mph 1023mb 55f 56f
4:04 6ft 16s 7 7 mph 1023mb 55f 56f
3:04  -   -  9 9 mph 1023.2mb 55f 57f
2:04 5ft 11s 7 7 mph 1022.8mb 55f 57f
1:04 5ft 16s 7 7 mph 1022.6mb 55f 56f
12:04 5ft 11s 4 4 mph 1022.6mb 55f 57f
11:04 4ft 16s 4 4 mph 1022.8mb 55f 56f
10:04 4.5ft 11s 2 2 mph 1023.1mb 55f 56f
9:04  -   -  7 7 mph 1023.1mb 54f 56f
8:04 5ft 16s 7 9 mph 1022.9mb 54f 56f
7:04 4.5ft 16s 7 7 mph 1022.3mb 55f 56f
6:04 4ft 11s 7 7 mph 1021.8mb 55f 56f
5:04 4.5ft 16s 7 9 mph 1021.7mb 55f 56f
4:04 4ft 11s 4 7 mph 1021.6mb 56f 56f
3:04 3.5ft 11s 2 4 mph 1022mb 54f 56f
2:04 4.5ft 11s 2 2 mph 1021.6mb 54f 56f
1:04 3.5ft 11s 2 4 mph 1021.3mb 55f 56f
12:04 3.5ft 11s 2 4 mph 1021.3mb 56f 56f
Dom 09/17 11:04 3ft 11s 2 4 mph 1021.5mb 56f 56f
10:04 3.5ft 16s 2 4 mph 1021.5mb 56f 56f
9:04 2.5ft 11s 2 2 mph 1021.3mb 56f 56f
8:04 3.5ft 11s 4 4 mph 1020.9mb 56f 57f
7:04 2.5ft 11s 9 9 mph 1020.5mb 56f 57f
6:04 3ft 11s 4 7 mph 1021.1mb 56f 57f
5:04 3.5ft 11s 9 9 mph 1021.2mb 56f 57f
4:04 2.5ft 11s 4 7 mph 1021.2mb 56f 58f
3:04 3.5ft 11s 7 9 mph 1021.2mb 56f 57f
2:04 3.5ft 11s 4 7 mph 1020.8mb 56f 57f
1:04 3.5ft 11s 2 4 mph 1021.4mb 55f 57f
12:04 3.5ft 11s 7 9 mph 1021.6mb 56f 57f
11:04 2.5ft 11s 4 7 mph 1021.8mb 56f 56f
10:04 2.5ft 11s 4 7 mph 1021.8mb 55f 56f
9:04 2.5ft 11s 2 2 mph 1022.1mb 55f 56f
8:04 3ft 11s 4
mph
1021.6mb 55f 56f
7:04  -   -  7 7 mph 1021.4mb 55f 56f
6:04 3.5ft 11s 7 9 mph 1021mb 55f 55f
5:04 3.5ft 11s 4 7 mph 1020.4mb 55f 55f
4:04 4.5ft 16s 4 7 mph 1020.3mb 55f 55f
3:04 3ft 11s 9 11 mph 1020.1mb 55f 56f
2:04 2.5ft 11s 7 9 mph 1020.4mb 55f 56f
1:04 3.5ft 11s 7 7 mph 1020.7mb 56f 56f
12:04 3ft 11s 4 7 mph 1020.3mb 54f 56f
Sáb 09/16 11:04 3.5ft 11s 4 7 mph 1020.5mb 55f 56f
10:04 3.5ft 11s 4 7 mph 1020.3mb 55f 56f
9:04 2.5ft 11s 7 9 mph 1020.2mb 56f 56f
8:04 3ft 11s 9 9 mph 1019.9mb 55f 56f
7:04 2.5ft 11s 7 9 mph 1019.7mb 55f 56f
6:04 2.5ft 11s 9 9 mph 1019.9mb 56f 57f
5:04 2.5ft 11s 9 11 mph 1019.6mb 56f 58f
4:04 2.5ft 11s 9 9 mph 1019.7mb 56f 58f
3:04 3ft 11s 7 7 mph 1019.8mb 56f 58f
2:04 3.5ft 11s 4 4 mph 1020.1mb 56f 59f
1:04 3.5ft 11s 4 4 mph 1020.6mb 55f 59f
12:04 2.5ft 11s 4 4 mph 1020.7mb 55f 58f
10:04 3.5ft 11s 4 4 mph 1021.3mb 55f 57f
9:04 3.5ft 11s 2 4 mph 1020.8mb 55f 58f
8:04 3.5ft 11s  -  2 mph 1020.1mb 55f 58f